Time;durP1;ratioP1;P1;durP2;ratioP2;P2;SDS_P1;SDS_P2;PMS_P1;PMS_P2;Temp;Humidity;BMP_temperature;BMP_pressure;BME280_temperature;BME280_humidity;BME280_pressure;Samples;Min_cycle;Max_cycle;Signal;HPM_P1;HPM_P2
2023/03/03 00:00:47;;;;;;;27.97;15.20;;;;;;;;;;5044185;28;20212;-32
2023/03/03 00:03:17;;;;;;;28.20;16.00;;;;;;;;;;5050460;28;20194;-28
2023/03/03 00:05:45;;;;;;;27.87;15.23;;;;;;;;;;5049049;28;20209;-34
2023/03/03 00:08:12;;;;;;;27.20;14.60;;;;;;;;;;5041976;28;20236;-28
2023/03/03 00:10:39;;;;;;;27.97;15.33;;;;;;;;;;5050390;28;20198;-34
2023/03/03 00:13:07;;;;;;;27.47;15.83;;;;;;;;;;5044525;28;20226;-33
2023/03/03 00:15:34;;;;;;;29.23;15.50;;;;;;;;;;5043172;28;20221;-28
2023/03/03 00:18:02;;;;;;;26.80;15.23;;;;;;;;;;5050251;28;20225;-27
2023/03/03 00:20:32;;;;;;;32.03;15.60;;;;;;;;;;5050822;28;20280;-35
2023/03/03 00:23:05;;;;;;;27.77;16.27;;;;;;;;;;5044775;28;20273;-28
2023/03/03 00:25:34;;;;;;;25.83;14.63;;;;;;;;;;5041636;28;20256;-34
2023/03/03 00:28:02;;;;;;;27.87;14.97;;;;;;;;;;5044485;28;20252;-30
2023/03/03 00:30:29;;;;;;;28.00;14.47;;;;;;;;;;5042350;28;20294;-29
2023/03/03 00:32:57;;;;;;;26.57;15.73;;;;;;;;;;5049768;28;20698;-31
2023/03/03 00:35:26;;;;;;;24.57;14.33;;;;;;;;;;5047471;28;20210;-32
2023/03/03 00:37:56;;;;;;;27.70;15.03;;;;;;;;;;5038546;28;20222;-30
2023/03/03 00:40:24;;;;;;;24.97;15.17;;;;;;;;;;5049848;28;20217;-29
2023/03/03 00:42:53;;;;;;;30.83;15.37;;;;;;;;;;5044545;28;20213;-35
2023/03/03 00:45:31;;;;;;;28.00;15.20;;;;;;;;;;5042793;28;20217;-31
2023/03/03 00:47:58;;;;;;;28.63;15.43;;;;;;;;;;5049707;28;20225;-30
2023/03/03 00:50:28;;;;;;;29.97;14.77;;;;;;;;;;5045524;28;20221;-32
2023/03/03 00:53:07;;;;;;;29.17;15.57;;;;;;;;;;5036791;28;20225;-27
2023/03/03 00:55:35;;;;;;;26.63;15.80;;;;;;;;;;5042785;28;20198;-28
2023/03/03 00:58:03;;;;;;;25.87;15.23;;;;;;;;;;5048227;28;20229;-28
2023/03/03 01:00:30;;;;;;;26.13;15.27;;;;;;;;;;5041711;28;20210;-30
2023/03/03 01:02:58;;;;;;;26.87;15.53;;;;;;;;;;5049854;28;20197;-31
2023/03/03 01:05:25;;;;;;;26.17;14.30;;;;;;;;;;5050724;28;20210;-33
2023/03/03 01:07:52;;;;;;;25.97;15.20;;;;;;;;;;5040541;28;20233;-33
2023/03/03 01:10:20;;;;;;;25.83;14.17;;;;;;;;;;5047868;28;20201;-28
2023/03/03 01:12:47;;;;;;;26.67;15.40;;;;;;;;;;5047722;28;20223;-32
2023/03/03 01:15:15;;;;;;;28.80;16.13;;;;;;;;;;5044481;28;20206;-31
2023/03/03 01:17:42;;;;;;;27.80;15.80;;;;;;;;;;5051080;28;20221;-27
2023/03/03 01:20:11;;;;;;;29.83;15.10;;;;;;;;;;5050285;28;20206;-30
2023/03/03 01:22:38;;;;;;;28.73;15.03;;;;;;;;;;5044801;28;20487;-29
2023/03/03 01:25:05;;;;;;;31.53;14.90;;;;;;;;;;5039507;28;20202;-34
2023/03/03 01:27:35;;;;;;;27.00;15.93;;;;;;;;;;5049270;28;20225;-29
2023/03/03 01:30:02;;;;;;;26.97;16.13;;;;;;;;;;5052682;28;20206;-30
2023/03/03 01:32:29;;;;;;;26.20;14.60;;;;;;;;;;5052792;28;20202;-32
2023/03/03 01:34:56;;;;;;;23.40;14.30;;;;;;;;;;5052718;28;20209;-34
2023/03/03 01:37:24;;;;;;;26.37;15.23;;;;;;;;;;5048120;28;20230;-30
2023/03/03 01:39:51;;;;;;;24.67;15.40;;;;;;;;;;5045433;28;20257;-30
2023/03/03 01:42:18;;;;;;;29.83;15.73;;;;;;;;;;5046237;28;20236;-31
2023/03/03 01:44:48;;;;;;;27.23;15.73;;;;;;;;;;5047553;28;20216;-30
2023/03/03 01:47:16;;;;;;;26.80;14.73;;;;;;;;;;5048822;28;20260;-30
2023/03/03 01:49:45;;;;;;;24.77;12.90;;;;;;;;;;5049183;28;20214;-31
2023/03/03 01:52:14;;;;;;;26.13;15.37;;;;;;;;;;5038514;28;20209;-29
2023/03/03 01:54:42;;;;;;;28.77;15.30;;;;;;;;;;5042375;28;20218;-34
2023/03/03 01:57:13;;;;;;;25.43;14.17;;;;;;;;;;5048475;28;20218;-30
2023/03/03 01:59:42;;;;;;;27.40;14.47;;;;;;;;;;5034485;28;20217;-35
2023/03/03 02:02:11;;;;;;;25.00;14.27;;;;;;;;;;5036181;28;20210;-29
2023/03/03 02:04:38;;;;;;;25.50;13.73;;;;;;;;;;5048614;28;20198;-28
2023/03/03 02:07:09;;;;;;;24.70;13.97;;;;;;;;;;5048777;28;20226;-30
2023/03/03 02:09:41;;;;;;;28.20;15.67;;;;;;;;;;5042567;28;20202;-32
2023/03/03 02:12:09;;;;;;;28.60;15.33;;;;;;;;;;5046147;28;20198;-29
2023/03/03 02:14:36;;;;;;;29.43;15.03;;;;;;;;;;5040995;28;20245;-31
2023/03/03 02:17:03;;;;;;;25.40;13.60;;;;;;;;;;5048865;28;20233;-31
2023/03/03 02:19:36;;;;;;;33.13;15.10;;;;;;;;;;5049120;28;20224;-34
2023/03/03 02:22:03;;;;;;;24.63;14.40;;;;;;;;;;5044913;28;20212;-27
2023/03/03 02:24:33;;;;;;;24.87;14.43;;;;;;;;;;5036576;28;20206;-28
2023/03/03 02:27:02;;;;;;;26.70;14.57;;;;;;;;;;5048917;28;20264;-31
2023/03/03 02:29:29;;;;;;;27.80;14.30;;;;;;;;;;5037935;28;20199;-27
2023/03/03 02:31:56;;;;;;;26.03;14.43;;;;;;;;;;5044597;28;20212;-29
2023/03/03 02:34:23;;;;;;;32.27;14.17;;;;;;;;;;5048515;28;20233;-28
2023/03/03 02:36:50;;;;;;;23.90;14.33;;;;;;;;;;5043954;28;20606;-28
2023/03/03 02:39:19;;;;;;;30.73;16.33;;;;;;;;;;5047322;28;20652;-29
2023/03/03 02:44:16;;;;;;;32.37;16.57;;;;;;;;;;5041656;28;20511;-26
2023/03/03 02:46:45;;;;;;;24.70;13.83;;;;;;;;;;5037105;28;20214;-29
2023/03/03 02:49:13;;;;;;;26.23;13.97;;;;;;;;;;5047390;28;20198;-30
2023/03/03 02:51:40;;;;;;;30.90;15.10;;;;;;;;;;5053109;28;20214;-30
2023/03/03 02:54:08;;;;;;;24.87;14.03;;;;;;;;;;5033943;28;20595;-30
2023/03/03 02:56:35;;;;;;;25.67;14.47;;;;;;;;;;5045424;28;20218;-30
2023/03/03 02:59:03;;;;;;;26.67;14.83;;;;;;;;;;5048486;28;20198;-29
2023/03/03 03:01:35;;;;;;;25.17;15.03;;;;;;;;;;5036315;28;20640;-26
2023/03/03 03:04:02;;;;;;;27.97;15.70;;;;;;;;;;5036050;28;20206;-31
2023/03/03 03:06:30;;;;;;;29.17;15.43;;;;;;;;;;5032319;28;20227;-29
2023/03/03 03:08:57;;;;;;;28.90;15.43;;;;;;;;;;5048379;28;20756;-27
2023/03/03 03:11:24;;;;;;;24.67;13.93;;;;;;;;;;5039187;28;20198;-28
2023/03/03 03:13:51;;;;;;;29.10;15.13;;;;;;;;;;5039308;28;20222;-28
2023/03/03 03:16:19;;;;;;;30.43;15.23;;;;;;;;;;5036894;28;20688;-29
2023/03/03 03:18:49;;;;;;;26.00;15.17;;;;;;;;;;5053016;28;20213;-28
2023/03/03 03:21:16;;;;;;;28.67;16.47;;;;;;;;;;5055900;28;20237;-29
2023/03/03 03:23:43;;;;;;;29.13;15.50;;;;;;;;;;5052148;28;20212;-31
2023/03/03 03:26:10;;;;;;;31.03;15.60;;;;;;;;;;5052385;28;20212;-29
2023/03/03 03:28:38;;;;;;;30.00;16.10;;;;;;;;;;5040634;28;20211;-32
2023/03/03 03:31:05;;;;;;;28.70;16.13;;;;;;;;;;5052366;28;20304;-27
2023/03/03 03:33:32;;;;;;;26.73;14.03;;;;;;;;;;5042780;28;20226;-27
2023/03/03 03:36:01;;;;;;;27.50;15.03;;;;;;;;;;5033530;28;20206;-25
2023/03/03 03:38:30;;;;;;;28.57;15.23;;;;;;;;;;5036855;28;20206;-28
2023/03/03 03:40:57;;;;;;;24.97;14.13;;;;;;;;;;5052129;28;20308;-27
2023/03/03 03:43:25;;;;;;;27.27;15.67;;;;;;;;;;5040924;28;20213;-29
2023/03/03 03:45:53;;;;;;;23.60;14.03;;;;;;;;;;5052339;28;20206;-30
2023/03/03 03:48:20;;;;;;;26.10;13.57;;;;;;;;;;5041601;28;20218;-26
2023/03/03 03:50:48;;;;;;;24.20;14.23;;;;;;;;;;5036420;28;20206;-29
2023/03/03 03:53:16;;;;;;;31.80;16.87;;;;;;;;;;5034108;28;20206;-30
2023/03/03 03:55:43;;;;;;;29.83;16.40;;;;;;;;;;5051413;28;20209;-29
2023/03/03 03:58:12;;;;;;;29.53;15.43;;;;;;;;;;5043398;28;20223;-27
2023/03/03 04:00:40;;;;;;;29.03;16.57;;;;;;;;;;5038448;28;20210;-30
2023/03/03 04:03:08;;;;;;;27.93;15.40;;;;;;;;;;5051071;28;20249;-28
2023/03/03 04:05:35;;;;;;;30.80;16.27;;;;;;;;;;5054306;28;20206;-28
2023/03/03 04:08:02;;;;;;;29.27;15.80;;;;;;;;;;5043633;28;20233;-29
2023/03/03 04:10:31;;;;;;;26.00;14.57;;;;;;;;;;5037435;28;20209;-31
2023/03/03 04:12:58;;;;;;;29.53;15.40;;;;;;;;;;5046879;28;20202;-26
2023/03/03 04:15:25;;;;;;;28.03;15.27;;;;;;;;;;5040396;28;20218;-26
2023/03/03 04:17:52;;;;;;;30.77;15.47;;;;;;;;;;5050558;28;20867;-29
2023/03/03 04:20:19;;;;;;;28.13;14.70;;;;;;;;;;5051002;28;20202;-27
2023/03/03 04:22:46;;;;;;;29.60;15.23;;;;;;;;;;5042074;28;20399;-29
2023/03/03 04:25:15;;;;;;;29.03;15.37;;;;;;;;;;5033896;28;20213;-32
2023/03/03 04:27:43;;;;;;;29.27;15.93;;;;;;;;;;5044667;28;20226;-27
2023/03/03 04:30:14;;;;;;;29.03;15.20;;;;;;;;;;5039153;28;20214;-28
2023/03/03 04:32:41;;;;;;;28.07;15.60;;;;;;;;;;5050460;28;20209;-30
2023/03/03 04:35:09;;;;;;;28.87;14.80;;;;;;;;;;5050457;28;20222;-32
2023/03/03 04:37:37;;;;;;;31.10;16.07;;;;;;;;;;5048252;28;20233;-29
2023/03/03 04:40:05;;;;;;;28.67;15.73;;;;;;;;;;5040932;28;20206;-29
2023/03/03 04:42:32;;;;;;;28.90;15.90;;;;;;;;;;5046960;28;20219;-29
2023/03/03 04:45:00;;;;;;;30.07;16.77;;;;;;;;;;5032528;28;20203;-28
2023/03/03 04:47:27;;;;;;;28.17;15.67;;;;;;;;;;5038178;28;20219;-30
2023/03/03 04:49:55;;;;;;;28.50;15.63;;;;;;;;;;5030028;28;20682;-29
2023/03/03 04:52:22;;;;;;;28.27;15.23;;;;;;;;;;5031052;28;20213;-26
2023/03/03 04:54:49;;;;;;;29.20;17.03;;;;;;;;;;5041508;28;20221;-30
2023/03/03 04:57:16;;;;;;;31.60;17.43;;;;;;;;;;5048289;28;20218;-28
2023/03/03 04:59:43;;;;;;;28.90;16.60;;;;;;;;;;5033056;28;20210;-26
2023/03/03 05:02:13;;;;;;;28.00;15.87;;;;;;;;;;5046562;28;20206;-25
2023/03/03 05:04:40;;;;;;;30.10;17.07;;;;;;;;;;5029523;28;20563;-29
2023/03/03 05:07:07;;;;;;;31.40;16.97;;;;;;;;;;5028942;28;20235;-28
2023/03/03 05:09:34;;;;;;;26.37;15.13;;;;;;;;;;5040785;28;20206;-31
2023/03/03 05:12:01;;;;;;;30.87;17.53;;;;;;;;;;5041105;28;20210;-28
2023/03/03 05:14:30;;;;;;;32.23;16.97;;;;;;;;;;5042760;28;20222;-30
2023/03/03 05:16:59;;;;;;;29.90;16.47;;;;;;;;;;5049171;28;20313;-31
2023/03/03 05:19:27;;;;;;;31.90;17.03;;;;;;;;;;5029818;28;20325;-31
2023/03/03 05:21:56;;;;;;;30.30;17.60;;;;;;;;;;5032056;28;20221;-30
2023/03/03 05:24:23;;;;;;;30.60;17.43;;;;;;;;;;5039983;28;20233;-30
2023/03/03 05:26:50;;;;;;;30.63;17.90;;;;;;;;;;5049487;28;20226;-32
2023/03/03 05:29:17;;;;;;;32.20;17.33;;;;;;;;;;5035333;28;20230;-28
2023/03/03 05:31:44;;;;;;;33.43;17.43;;;;;;;;;;5037580;28;20207;-30
2023/03/03 05:34:12;;;;;;;30.47;16.57;;;;;;;;;;5029498;28;20318;-32
2023/03/03 05:36:40;;;;;;;30.87;16.80;;;;;;;;;;5029386;28;20230;-30
2023/03/03 05:39:07;;;;;;;32.73;17.30;;;;;;;;;;5036721;28;20337;-32
2023/03/03 05:41:35;;;;;;;32.13;16.30;;;;;;;;;;5033825;28;20205;-27
2023/03/03 05:44:02;;;;;;;33.73;16.63;;;;;;;;;;5032715;28;20218;-32
2023/03/03 05:46:29;;;;;;;31.00;16.50;;;;;;;;;;5038962;28;20237;-30
2023/03/03 05:48:57;;;;;;;28.63;16.90;;;;;;;;;;5033544;28;20649;-26
2023/03/03 05:51:24;;;;;;;31.10;16.03;;;;;;;;;;5028041;28;20215;-27
2023/03/03 05:53:52;;;;;;;30.03;17.10;;;;;;;;;;5044097;28;20213;-30
2023/03/03 05:56:19;;;;;;;34.00;18.17;;;;;;;;;;5048956;28;20225;-30
2023/03/03 05:58:46;;;;;;;31.17;16.43;;;;;;;;;;5040885;28;20202;-29
2023/03/03 06:01:13;;;;;;;33.73;16.97;;;;;;;;;;5039308;28;20213;-31
2023/03/03 06:03:41;;;;;;;32.13;17.80;;;;;;;;;;5029286;28;20202;-27
2023/03/03 06:06:09;;;;;;;35.40;18.37;;;;;;;;;;5032942;28;20207;-28
2023/03/03 06:08:36;;;;;;;33.20;17.00;;;;;;;;;;5041074;28;20298;-27
2023/03/03 06:11:04;;;;;;;31.87;17.07;;;;;;;;;;5037932;28;20198;-31
2023/03/03 06:13:31;;;;;;;33.63;18.00;;;;;;;;;;5042267;28;20209;-29
2023/03/03 06:15:58;;;;;;;36.60;18.50;;;;;;;;;;5046436;28;20221;-27
2023/03/03 06:18:26;;;;;;;30.53;16.97;;;;;;;;;;5029753;28;20723;-27
2023/03/03 06:20:53;;;;;;;26.57;16.10;;;;;;;;;;5030646;28;20207;-29
2023/03/03 06:23:20;;;;;;;31.57;16.77;;;;;;;;;;5037499;28;20266;-30
2023/03/03 06:25:48;;;;;;;28.33;15.97;;;;;;;;;;5046686;28;20194;-30
2023/03/03 06:28:16;;;;;;;35.97;17.80;;;;;;;;;;5050023;28;20225;-28
2023/03/03 06:30:43;;;;;;;33.67;17.70;;;;;;;;;;5043879;28;20215;-31
2023/03/03 06:33:13;;;;;;;30.83;16.40;;;;;;;;;;5034946;28;20209;-31
2023/03/03 06:35:40;;;;;;;30.07;17.33;;;;;;;;;;5034414;28;20278;-28
2023/03/03 06:38:07;;;;;;;34.60;17.97;;;;;;;;;;5040698;28;20222;-26
2023/03/03 06:40:42;;;;;;;29.47;17.10;;;;;;;;;;5042992;28;20549;-27
2023/03/03 06:43:09;;;;;;;27.10;15.83;;;;;;;;;;5035417;28;20214;-27
2023/03/03 06:45:38;;;;;;;31.70;18.30;;;;;;;;;;5048105;28;20205;-29
2023/03/03 06:48:05;;;;;;;27.97;16.50;;;;;;;;;;5046051;28;20222;-29
2023/03/03 06:50:34;;;;;;;33.83;18.27;;;;;;;;;;5035032;28;20202;-26
2023/03/03 06:53:05;;;;;;;34.50;18.53;;;;;;;;;;5037746;28;20203;-28
2023/03/03 06:55:32;;;;;;;32.17;17.17;;;;;;;;;;5054208;28;20218;-27
2023/03/03 06:58:00;;;;;;;30.20;17.73;;;;;;;;;;5040958;28;20245;-30
2023/03/03 07:00:28;;;;;;;26.53;16.67;;;;;;;;;;5042629;28;20210;-29
2023/03/03 07:02:58;;;;;;;28.93;16.67;;;;;;;;;;5049736;28;20201;-29
2023/03/03 07:05:27;;;;;;;37.37;19.73;;;;;;;;;;5055128;28;20202;-30
2023/03/03 07:07:54;;;;;;;33.83;17.87;;;;;;;;;;5048047;28;20264;-29
2023/03/03 07:10:24;;;;;;;32.67;18.73;;;;;;;;;;5035202;28;20209;-28
2023/03/03 07:12:51;;;;;;;33.13;18.33;;;;;;;;;;5035966;28;20203;-28
2023/03/03 07:15:21;;;;;;;31.00;17.80;;;;;;;;;;5043813;28;20237;-27
2023/03/03 07:17:49;;;;;;;31.43;17.03;;;;;;;;;;5033876;28;20214;-28
2023/03/03 07:20:19;;;;;;;38.57;18.27;;;;;;;;;;5034468;28;20207;-27
2023/03/03 07:22:46;;;;;;;35.20;17.93;;;;;;;;;;5037767;28;20826;-28
2023/03/03 07:25:20;;;;;;;34.57;18.20;;;;;;;;;;5034162;28;20197;-29
2023/03/03 07:27:47;;;;;;;31.93;18.07;;;;;;;;;;5035751;28;20218;-28
2023/03/03 07:30:20;;;;;;;32.23;16.80;;;;;;;;;;5051956;28;20197;-27
2023/03/03 07:32:48;;;;;;;36.33;19.17;;;;;;;;;;5048425;28;20198;-28
2023/03/03 07:35:26;;;;;;;37.93;18.87;;;;;;;;;;5053649;28;20218;-26
2023/03/03 07:37:56;;;;;;;39.27;20.27;;;;;;;;;;5046523;28;20226;-27
2023/03/03 07:40:30;;;;;;;39.67;19.03;;;;;;;;;;5048285;28;20208;-28
2023/03/03 07:42:57;;;;;;;34.63;18.77;;;;;;;;;;5040510;28;20261;-29
2023/03/03 07:45:26;;;;;;;35.77;20.07;;;;;;;;;;5037655;28;20204;-28
2023/03/03 07:47:55;;;;;;;34.30;18.93;;;;;;;;;;5038417;28;20225;-27
2023/03/03 07:50:24;;;;;;;32.40;18.13;;;;;;;;;;5034092;28;20210;-29
2023/03/03 07:52:55;;;;;;;38.43;19.60;;;;;;;;;;5033612;28;20210;-24
2023/03/03 07:55:26;;;;;;;32.83;18.80;;;;;;;;;;5032635;28;20219;-31
2023/03/03 07:57:56;;;;;;;35.37;19.37;;;;;;;;;;5043741;28;20234;-27
2023/03/03 08:00:41;;;;;;;35.93;19.90;;;;;;;;;;5040820;28;20234;-26
2023/03/03 08:03:12;;;;;;;38.00;20.57;;;;;;;;;;5041274;28;20210;-27
2023/03/03 08:05:42;;;;;;;36.23;20.70;;;;;;;;;;5031586;28;20400;-29
2023/03/03 08:08:20;;;;;;;42.13;21.03;;;;;;;;;;5045631;28;20234;-28
2023/03/03 08:10:48;;;;;;;37.87;19.33;;;;;;;;;;5051154;28;20194;-27
2023/03/03 08:13:19;;;;;;;34.20;18.37;;;;;;;;;;5045514;28;20206;-30
2023/03/03 08:15:47;;;;;;;35.40;18.97;;;;;;;;;;5033465;28;20687;-27
2023/03/03 08:18:22;;;;;;;35.27;19.20;;;;;;;;;;5040310;28;20218;-27
2023/03/03 08:20:51;;;;;;;40.20;20.97;;;;;;;;;;5052648;28;20284;-28
2023/03/03 08:23:19;;;;;;;38.33;19.67;;;;;;;;;;5043984;28;20207;-27
2023/03/03 08:25:47;;;;;;;35.30;18.50;;;;;;;;;;5053189;28;20572;-28
2023/03/03 08:28:14;;;;;;;34.17;18.33;;;;;;;;;;5036164;28;20226;-29
2023/03/03 08:30:41;;;;;;;33.27;18.97;;;;;;;;;;5040708;28;20202;-26
2023/03/03 08:33:09;;;;;;;38.20;19.70;;;;;;;;;;5052869;28;20208;-24
2023/03/03 08:35:36;;;;;;;36.30;18.77;;;;;;;;;;5051811;28;20570;-29
2023/03/03 08:38:05;;;;;;;32.57;17.60;;;;;;;;;;5035200;28;20232;-29
2023/03/03 08:40:32;;;;;;;31.00;15.93;;;;;;;;;;5048858;28;20253;-29
2023/03/03 08:42:59;;;;;;;34.73;19.73;;;;;;;;;;5033767;28;20211;-26
2023/03/03 08:45:26;;;;;;;32.97;18.83;;;;;;;;;;5043515;28;20213;-33
2023/03/03 08:47:54;;;;;;;37.20;20.23;;;;;;;;;;5043437;28;20214;-27
2023/03/03 08:52:57;;;;;;;30.87;19.10;;;;;;;;;;5100568;22;20221;-29
2023/03/03 08:55:25;;;;;;;39.57;20.13;;;;;;;;;;5049695;28;20214;-31
2023/03/03 08:57:53;;;;;;;32.60;17.97;;;;;;;;;;5038928;28;20233;-29
2023/03/03 09:00:21;;;;;;;36.07;20.27;;;;;;;;;;5043959;28;20656;-29
2023/03/03 09:02:49;;;;;;;36.50;19.37;;;;;;;;;;5063666;28;20206;-31
2023/03/03 09:05:16;;;;;;;35.97;19.70;;;;;;;;;;5048041;28;20202;-31
2023/03/03 09:07:44;;;;;;;42.13;20.67;;;;;;;;;;5058036;28;20311;-30
2023/03/03 09:10:12;;;;;;;35.53;19.60;;;;;;;;;;5071463;28;20194;-26
2023/03/03 09:12:42;;;;;;;36.20;18.30;;;;;;;;;;5063260;28;20206;-29
2023/03/03 09:15:15;;;;;;;36.10;19.77;;;;;;;;;;5049914;28;20226;-28
2023/03/03 09:17:43;;;;;;;41.03;19.53;;;;;;;;;;5072858;28;20223;-27
2023/03/03 09:20:24;;;;;;;33.17;19.23;;;;;;;;;;5072829;28;20216;-29
2023/03/03 09:22:51;;;;;;;33.00;19.27;;;;;;;;;;5045712;28;20205;-33
2023/03/03 09:25:22;;;;;;;37.10;19.70;;;;;;;;;;5054435;28;20259;-27
2023/03/03 09:27:53;;;;;;;33.40;17.60;;;;;;;;;;5061753;28;20230;-27
2023/03/03 09:30:29;;;;;;;36.03;19.33;;;;;;;;;;5039497;28;20206;-29
2023/03/03 09:32:57;;;;;;;35.27;20.77;;;;;;;;;;5059836;28;20200;-29
2023/03/03 09:35:34;;;;;;;36.87;20.27;;;;;;;;;;5051832;28;20225;-30
2023/03/03 09:38:02;;;;;;;37.40;19.33;;;;;;;;;;5040265;28;20264;-28
2023/03/03 09:40:40;;;;;;;34.23;20.47;;;;;;;;;;5047013;28;20211;-28
2023/03/03 09:43:10;;;;;;;34.13;20.40;;;;;;;;;;5058050;28;20201;-28
2023/03/03 09:45:41;;;;;;;36.60;19.43;;;;;;;;;;5056019;28;20204;-32
2023/03/03 09:48:20;;;;;;;35.73;20.83;;;;;;;;;;5054053;28;20218;-27
2023/03/03 09:50:53;;;;;;;40.53;21.73;;;;;;;;;;5051922;28;20197;-29
2023/03/03 09:53:28;;;;;;;37.87;21.23;;;;;;;;;;5045971;28;20217;-30
2023/03/03 09:55:59;;;;;;;39.03;20.60;;;;;;;;;;5044196;28;20220;-29
2023/03/03 09:58:36;;;;;;;35.90;20.03;;;;;;;;;;5051602;28;20198;-31
2023/03/03 10:01:18;;;;;;;38.93;21.97;;;;;;;;;;5057546;28;20197;-30
2023/03/03 10:03:57;;;;;;;37.97;20.70;;;;;;;;;;5069544;28;20189;-31
2023/03/03 10:06:28;;;;;;;36.80;22.03;;;;;;;;;;5066716;28;20215;-29
2023/03/03 10:09:04;;;;;;;37.97;21.33;;;;;;;;;;5068083;28;20280;-31
2023/03/03 10:11:35;;;;;;;38.70;21.23;;;;;;;;;;5048296;28;20272;-29
2023/03/03 10:14:14;;;;;;;33.77;20.53;;;;;;;;;;5041250;28;20730;-29
2023/03/03 10:16:55;;;;;;;37.47;20.20;;;;;;;;;;5063369;28;20221;-29
2023/03/03 10:19:31;;;;;;;37.40;21.40;;;;;;;;;;5074382;28;20223;-29
2023/03/03 10:22:04;;;;;;;36.03;19.77;;;;;;;;;;5049504;28;20286;-29
2023/03/03 10:24:32;;;;;;;36.63;21.77;;;;;;;;;;5047072;28;20202;-26
2023/03/03 10:27:06;;;;;;;38.73;21.60;;;;;;;;;;5071919;28;20217;-27
2023/03/03 10:29:41;;;;;;;34.50;20.47;;;;;;;;;;5049817;28;20193;-33
2023/03/03 10:32:25;;;;;;;34.67;20.07;;;;;;;;;;5064043;28;20185;-30
2023/03/03 10:35:03;;;;;;;39.00;20.70;;;;;;;;;;5075191;28;20196;-30
2023/03/03 10:37:34;;;;;;;38.47;21.07;;;;;;;;;;5060279;28;20227;-29
2023/03/03 10:40:09;;;;;;;44.60;23.20;;;;;;;;;;5073406;28;20205;-30
2023/03/03 10:42:51;;;;;;;34.93;21.73;;;;;;;;;;5068054;28;20194;-26
2023/03/03 10:45:33;;;;;;;32.43;20.97;;;;;;;;;;5042996;28;20234;-29
2023/03/03 10:48:15;;;;;;;39.30;22.20;;;;;;;;;;5075027;28;20226;-27
2023/03/03 10:50:50;;;;;;;35.23;19.77;;;;;;;;;;5070721;28;20296;-29
2023/03/03 10:53:32;;;;;;;37.90;22.13;;;;;;;;;;5052390;28;20198;-29
2023/03/03 10:56:14;;;;;;;38.57;22.00;;;;;;;;;;5054875;28;20206;-27
2023/03/03 10:58:46;;;;;;;38.83;21.03;;;;;;;;;;5047595;28;20194;-32
2023/03/03 11:01:18;;;;;;;38.53;21.50;;;;;;;;;;5057235;28;20394;-28
2023/03/03 11:03:56;;;;;;;33.93;20.27;;;;;;;;;;5053325;28;20190;-27
2023/03/03 11:06:27;;;;;;;36.67;20.43;;;;;;;;;;5055138;28;20226;-29
2023/03/03 11:08:56;;;;;;;35.50;20.07;;;;;;;;;;5045429;28;20206;-31
2023/03/03 11:11:29;;;;;;;31.30;19.97;;;;;;;;;;5047330;28;20210;-30
2023/03/03 11:13:57;;;;;;;35.53;20.37;;;;;;;;;;5044948;28;20194;-29
2023/03/03 11:16:41;;;;;;;35.03;20.33;;;;;;;;;;5050683;28;20218;-31
2023/03/03 11:19:13;;;;;;;32.87;19.10;;;;;;;;;;5072162;28;20199;-31
2023/03/03 11:21:44;;;;;;;38.60;21.17;;;;;;;;;;5062565;28;20641;-30
2023/03/03 11:24:19;;;;;;;32.73;19.30;;;;;;;;;;5064221;28;20205;-31
2023/03/03 11:26:53;;;;;;;35.87;21.67;;;;;;;;;;5069092;28;20213;-31
2023/03/03 11:29:27;;;;;;;37.03;20.77;;;;;;;;;;5042204;28;20203;-28
2023/03/03 11:31:56;;;;;;;35.50;20.43;;;;;;;;;;5064880;28;20201;-29
2023/03/03 11:34:39;;;;;;;34.60;19.97;;;;;;;;;;5074256;28;20273;-32
2023/03/03 11:37:09;;;;;;;35.47;19.60;;;;;;;;;;5063205;28;20225;-26
2023/03/03 11:39:36;;;;;;;33.27;20.80;;;;;;;;;;5042049;28;20202;-31
2023/03/03 11:42:09;;;;;;;34.97;20.93;;;;;;;;;;5070907;28;20197;-30
2023/03/03 11:44:39;;;;;;;33.67;20.07;;;;;;;;;;5048655;28;20204;-32
2023/03/03 11:47:14;;;;;;;34.20;19.63;;;;;;;;;;5062947;28;20214;-26
2023/03/03 11:49:43;;;;;;;32.77;18.97;;;;;;;;;;5074749;28;20191;-30
2023/03/03 11:52:21;;;;;;;33.70;16.60;;;;;;;;;;5053259;28;20207;-30
2023/03/03 11:54:51;;;;;;;35.10;20.37;;;;;;;;;;5069599;28;20254;-26
2023/03/03 11:57:21;;;;;;;38.10;19.30;;;;;;;;;;5071886;28;20229;-27
2023/03/03 11:59:56;;;;;;;36.13;19.07;;;;;;;;;;5043796;28;20207;-30
2023/03/03 12:02:51;;;;;;;32.80;20.03;;;;;;;;;;5064460;28;20205;-30
2023/03/03 12:05:22;;;;;;;34.90;20.50;;;;;;;;;;5068852;28;20197;-30
2023/03/03 12:07:52;;;;;;;35.77;22.07;;;;;;;;;;5041175;28;20218;-30
2023/03/03 12:10:23;;;;;;;33.77;20.17;;;;;;;;;;5056080;28;20193;-32
2023/03/03 12:12:53;;;;;;;33.03;20.37;;;;;;;;;;5062618;28;20222;-30
2023/03/03 12:15:26;;;;;;;31.80;19.90;;;;;;;;;;5040952;28;20226;-30
2023/03/03 12:18:11;;;;;;;31.40;20.20;;;;;;;;;;5058326;28;20233;-28
2023/03/03 12:20:44;;;;;;;34.37;20.50;;;;;;;;;;5070593;28;20201;-28
2023/03/03 12:23:16;;;;;;;33.07;20.17;;;;;;;;;;5045014;28;20209;-30
2023/03/03 12:25:44;;;;;;;34.40;20.67;;;;;;;;;;5050990;28;20189;-33
2023/03/03 12:28:14;;;;;;;33.10;21.30;;;;;;;;;;5064204;28;20229;-29
2023/03/03 12:31:02;;;;;;;33.03;19.50;;;;;;;;;;5049044;28;20206;-32
2023/03/03 12:33:37;;;;;;;37.07;21.63;;;;;;;;;;5051471;28;20208;-28
2023/03/03 12:36:13;;;;;;;35.73;19.83;;;;;;;;;;5070573;28;20196;-32
2023/03/03 12:38:44;;;;;;;36.03;21.70;;;;;;;;;;5040651;28;20198;-28
2023/03/03 12:41:14;;;;;;;35.60;21.10;;;;;;;;;;5050692;28;20194;-32
2023/03/03 12:43:47;;;;;;;35.67;21.33;;;;;;;;;;5044574;28;20202;-27
2023/03/03 12:46:20;;;;;;;38.93;20.83;;;;;;;;;;5054926;28;20221;-31
2023/03/03 12:48:47;;;;;;;35.83;22.07;;;;;;;;;;5052536;28;20220;-32
2023/03/03 12:51:28;;;;;;;41.67;22.80;;;;;;;;;;5045917;28;20211;-32
2023/03/03 12:54:16;;;;;;;35.43;20.97;;;;;;;;;;5041979;28;20211;-32
2023/03/03 12:56:46;;;;;;;40.70;22.07;;;;;;;;;;5046274;28;20213;-30
2023/03/03 12:59:17;;;;;;;34.63;21.20;;;;;;;;;;5048228;28;20202;-32
2023/03/03 13:01:50;;;;;;;35.50;21.07;;;;;;;;;;5054596;28;20186;-32
2023/03/03 13:04:28;;;;;;;37.10;20.37;;;;;;;;;;5052533;28;20190;-32
2023/03/03 13:07:00;;;;;;;35.80;21.03;;;;;;;;;;5050539;28;20624;-27
2023/03/03 13:09:33;;;;;;;33.90;20.53;;;;;;;;;;5046148;28;20289;-29
2023/03/03 13:12:13;;;;;;;30.33;20.27;;;;;;;;;;5062057;28;20194;-30
2023/03/03 13:14:43;;;;;;;34.27;21.67;;;;;;;;;;5052158;28;20198;-30
2023/03/03 13:17:16;;;;;;;38.97;21.70;;;;;;;;;;5035111;28;20238;-29
2023/03/03 13:19:46;;;;;;;36.17;20.80;;;;;;;;;;5054322;28;20228;-31
2023/03/03 13:22:18;;;;;;;33.03;18.87;;;;;;;;;;5046936;28;20210;-32
2023/03/03 13:24:52;;;;;;;33.83;19.83;;;;;;;;;;5045177;28;20190;-30
2023/03/03 13:27:21;;;;;;;33.77;20.70;;;;;;;;;;5054101;28;20267;-33
2023/03/03 13:29:54;;;;;;;35.10;19.60;;;;;;;;;;5045132;28;20289;-30
2023/03/03 13:32:22;;;;;;;35.50;20.37;;;;;;;;;;5064544;28;20201;-29
2023/03/03 13:34:51;;;;;;;37.30;20.73;;;;;;;;;;5073854;28;20643;-28
2023/03/03 13:37:21;;;;;;;33.40;20.87;;;;;;;;;;5062129;28;20321;-31
2023/03/03 13:39:54;;;;;;;31.73;20.00;;;;;;;;;;5063557;28;20277;-31
2023/03/03 13:42:24;;;;;;;37.73;21.23;;;;;;;;;;5069882;28;20208;-31
2023/03/03 13:44:52;;;;;;;35.53;20.93;;;;;;;;;;5054812;28;20213;-30
2023/03/03 13:47:23;;;;;;;36.00;20.37;;;;;;;;;;5060881;28;20220;-31
2023/03/03 13:50:01;;;;;;;31.13;19.63;;;;;;;;;;5052452;28;20196;-32
2023/03/03 13:52:30;;;;;;;31.47;19.33;;;;;;;;;;5051485;28;20208;-30
2023/03/03 13:55:05;;;;;;;36.67;21.87;;;;;;;;;;5056284;28;20209;-31
2023/03/03 13:57:39;;;;;;;36.53;20.97;;;;;;;;;;5058627;28;20233;-28
2023/03/03 14:00:13;;;;;;;32.93;19.90;;;;;;;;;;5042226;28;20213;-30
2023/03/03 14:02:57;;;;;;;33.20;19.70;;;;;;;;;;5065233;28;20197;-28
2023/03/03 14:05:31;;;;;;;28.27;17.40;;;;;;;;;;5072356;28;20232;-30
2023/03/03 14:08:00;;;;;;;32.03;17.53;;;;;;;;;;5059155;28;20221;-29
2023/03/03 14:10:30;;;;;;;30.70;16.97;;;;;;;;;;5043044;28;20194;-31
2023/03/03 14:13:03;;;;;;;25.20;16.00;;;;;;;;;;5045967;28;20202;-33
2023/03/03 14:15:31;;;;;;;27.47;16.27;;;;;;;;;;5051398;28;20198;-32
2023/03/03 14:18:16;;;;;;;25.23;15.47;;;;;;;;;;5051658;28;20330;-32
2023/03/03 14:20:47;;;;;;;26.43;15.80;;;;;;;;;;5044841;28;20194;-29
2023/03/03 14:23:19;;;;;;;37.33;23.47;;;;;;;;;;5058498;28;20194;-31
2023/03/03 14:25:59;;;;;;;25.77;15.77;;;;;;;;;;5056690;28;20209;-29
2023/03/03 14:28:27;;;;;;;26.30;15.57;;;;;;;;;;5044649;28;20205;-34
2023/03/03 14:30:55;;;;;;;25.90;15.97;;;;;;;;;;5053511;28;20210;-32
2023/03/03 14:33:28;;;;;;;26.63;16.70;;;;;;;;;;5051029;28;20285;-32
2023/03/03 14:36:03;;;;;;;26.73;14.80;;;;;;;;;;5051614;28;20214;-31
2023/03/03 14:38:42;;;;;;;23.40;14.80;;;;;;;;;;5035031;28;20222;-34